sensor_id;sensor_type;location;lat;lon;timestamp;P1;durP1;ratioP1;P2;durP2;ratioP2
43606;SDS011;29197;44.788;10.366;2022-12-18T00:00:56;35.40;;;21.70;;
43606;SDS011;29197;44.788;10.366;2022-12-18T00:03:45;36.00;;;21.93;;
43606;SDS011;29197;44.788;10.366;2022-12-18T00:06:35;37.07;;;23.43;;
43606;SDS011;29197;44.788;10.366;2022-12-18T00:09:24;41.37;;;23.60;;
43606;SDS011;29197;44.788;10.366;2022-12-18T00:12:26;38.80;;;22.77;;
43606;SDS011;29197;44.788;10.366;2022-12-18T00:15:17;39.20;;;23.13;;
43606;SDS011;29197;44.788;10.366;2022-12-18T00:18:07;36.33;;;21.87;;
43606;SDS011;29197;44.788;10.366;2022-12-18T00:21:02;36.23;;;22.70;;
43606;SDS011;29197;44.788;10.366;2022-12-18T00:23:52;32.23;;;22.53;;
43606;SDS011;29197;44.788;10.366;2022-12-18T00:26:42;36.63;;;23.03;;
43606;SDS011;29197;44.788;10.366;2022-12-18T00:29:31;33.70;;;21.77;;
43606;SDS011;29197;44.788;10.366;2022-12-18T00:32:22;35.37;;;21.37;;
43606;SDS011;29197;44.788;10.366;2022-12-18T00:35:11;34.47;;;21.57;;
43606;SDS011;29197;44.788;10.366;2022-12-18T00:38:01;35.07;;;21.57;;
43606;SDS011;29197;44.788;10.366;2022-12-18T00:40:50;36.90;;;22.33;;
43606;SDS011;29197;44.788;10.366;2022-12-18T00:43:39;32.87;;;21.30;;
43606;SDS011;29197;44.788;10.366;2022-12-18T00:46:28;37.10;;;22.30;;
43606;SDS011;29197;44.788;10.366;2022-12-18T00:49:20;32.80;;;21.13;;
43606;SDS011;29197;44.788;10.366;2022-12-18T00:52:09;35.97;;;22.07;;
43606;SDS011;29197;44.788;10.366;2022-12-18T00:54:59;35.20;;;21.53;;
43606;SDS011;29197;44.788;10.366;2022-12-18T00:57:52;37.30;;;21.07;;
43606;SDS011;29197;44.788;10.366;2022-12-18T01:00:41;32.33;;;21.43;;
43606;SDS011;29197;44.788;10.366;2022-12-18T01:03:31;35.77;;;22.43;;
43606;SDS011;29197;44.788;10.366;2022-12-18T01:06:22;37.17;;;22.77;;
43606;SDS011;29197;44.788;10.366;2022-12-18T01:09:11;38.47;;;23.67;;
43606;SDS011;29197;44.788;10.366;2022-12-18T01:12:01;33.20;;;21.07;;
43606;SDS011;29197;44.788;10.366;2022-12-18T01:14:50;37.27;;;21.83;;
43606;SDS011;29197;44.788;10.366;2022-12-18T01:17:39;33.33;;;21.70;;
43606;SDS011;29197;44.788;10.366;2022-12-18T01:20:29;35.53;;;21.90;;
43606;SDS011;29197;44.788;10.366;2022-12-18T01:23:19;35.93;;;21.33;;
43606;SDS011;29197;44.788;10.366;2022-12-18T01:26:09;39.37;;;23.23;;
43606;SDS011;29197;44.788;10.366;2022-12-18T01:28:58;39.70;;;23.80;;
43606;SDS011;29197;44.788;10.366;2022-12-18T01:31:48;36.53;;;22.63;;
43606;SDS011;29197;44.788;10.366;2022-12-18T01:34:37;32.73;;;21.63;;
43606;SDS011;29197;44.788;10.366;2022-12-18T01:37:26;38.33;;;22.83;;
43606;SDS011;29197;44.788;10.366;2022-12-18T01:40:17;34.23;;;21.50;;
43606;SDS011;29197;44.788;10.366;2022-12-18T01:43:08;37.07;;;22.17;;
43606;SDS011;29197;44.788;10.366;2022-12-18T01:45:58;34.50;;;22.13;;
43606;SDS011;29197;44.788;10.366;2022-12-18T01:48:49;35.90;;;22.53;;
43606;SDS011;29197;44.788;10.366;2022-12-18T01:51:40;32.53;;;20.83;;
43606;SDS011;29197;44.788;10.366;2022-12-18T01:54:29;36.77;;;21.57;;
43606;SDS011;29197;44.788;10.366;2022-12-18T01:57:20;29.97;;;19.80;;
43606;SDS011;29197;44.788;10.366;2022-12-18T02:00:11;34.43;;;21.10;;
43606;SDS011;29197;44.788;10.366;2022-12-18T02:03:02;33.57;;;20.00;;
43606;SDS011;29197;44.788;10.366;2022-12-18T02:05:52;35.53;;;20.43;;
43606;SDS011;29197;44.788;10.366;2022-12-18T02:08:52;30.47;;;20.17;;
43606;SDS011;29197;44.788;10.366;2022-12-18T02:11:48;29.90;;;19.43;;
43606;SDS011;29197;44.788;10.366;2022-12-18T02:14:44;33.40;;;20.60;;
43606;SDS011;29197;44.788;10.366;2022-12-18T02:17:42;31.67;;;19.17;;
43606;SDS011;29197;44.788;10.366;2022-12-18T02:20:36;33.73;;;20.83;;
43606;SDS011;29197;44.788;10.366;2022-12-18T02:23:37;33.73;;;20.50;;
43606;SDS011;29197;44.788;10.366;2022-12-18T02:26:37;34.67;;;21.07;;
43606;SDS011;29197;44.788;10.366;2022-12-18T02:29:32;31.80;;;19.40;;
43606;SDS011;29197;44.788;10.366;2022-12-18T02:32:24;34.70;;;20.83;;
43606;SDS011;29197;44.788;10.366;2022-12-18T02:35:16;34.57;;;20.27;;
43606;SDS011;29197;44.788;10.366;2022-12-18T02:38:08;37.23;;;21.63;;
43606;SDS011;29197;44.788;10.366;2022-12-18T02:40:59;43.53;;;21.33;;
43606;SDS011;29197;44.788;10.366;2022-12-18T02:43:55;38.20;;;21.83;;
43606;SDS011;29197;44.788;10.366;2022-12-18T02:46:46;33.53;;;21.43;;
43606;SDS011;29197;44.788;10.366;2022-12-18T02:49:41;37.40;;;20.97;;
43606;SDS011;29197;44.788;10.366;2022-12-18T02:52:39;33.50;;;21.03;;
43606;SDS011;29197;44.788;10.366;2022-12-18T02:55:39;33.07;;;19.77;;
43606;SDS011;29197;44.788;10.366;2022-12-18T02:58:40;34.10;;;20.43;;
43606;SDS011;29197;44.788;10.366;2022-12-18T03:01:38;32.37;;;19.57;;
43606;SDS011;29197;44.788;10.366;2022-12-18T03:04:32;31.93;;;20.50;;
43606;SDS011;29197;44.788;10.366;2022-12-18T03:07:34;30.47;;;18.73;;
43606;SDS011;29197;44.788;10.366;2022-12-18T03:10:28;30.87;;;20.50;;
43606;SDS011;29197;44.788;10.366;2022-12-18T03:13:20;29.57;;;19.43;;
43606;SDS011;29197;44.788;10.366;2022-12-18T03:16:17;30.57;;;19.17;;
43606;SDS011;29197;44.788;10.366;2022-12-18T03:19:13;31.70;;;19.60;;
43606;SDS011;29197;44.788;10.366;2022-12-18T03:22:06;30.03;;;19.80;;
43606;SDS011;29197;44.788;10.366;2022-12-18T03:24:56;32.30;;;20.80;;
43606;SDS011;29197;44.788;10.366;2022-12-18T03:27:49;32.73;;;19.90;;
43606;SDS011;29197;44.788;10.366;2022-12-18T03:30:46;28.93;;;17.77;;
43606;SDS011;29197;44.788;10.366;2022-12-18T03:33:41;28.13;;;19.17;;
43606;SDS011;29197;44.788;10.366;2022-12-18T03:36:36;26.97;;;17.87;;
43606;SDS011;29197;44.788;10.366;2022-12-18T03:39:25;25.97;;;17.63;;
43606;SDS011;29197;44.788;10.366;2022-12-18T03:42:15;23.33;;;16.17;;
43606;SDS011;29197;44.788;10.366;2022-12-18T03:45:15;25.13;;;16.83;;
43606;SDS011;29197;44.788;10.366;2022-12-18T03:48:12;23.30;;;16.87;;
43606;SDS011;29197;44.788;10.366;2022-12-18T03:51:05;24.57;;;16.87;;
43606;SDS011;29197;44.788;10.366;2022-12-18T03:53:59;24.53;;;16.37;;
43606;SDS011;29197;44.788;10.366;2022-12-18T03:56:51;26.20;;;17.30;;
43606;SDS011;29197;44.788;10.366;2022-12-18T03:59:41;25.83;;;16.27;;
43606;SDS011;29197;44.788;10.366;2022-12-18T04:02:31;25.73;;;17.13;;
43606;SDS011;29197;44.788;10.366;2022-12-18T04:05:22;26.63;;;18.03;;
43606;SDS011;29197;44.788;10.366;2022-12-18T04:08:14;28.53;;;18.33;;
43606;SDS011;29197;44.788;10.366;2022-12-18T04:11:05;28.37;;;18.50;;
43606;SDS011;29197;44.788;10.366;2022-12-18T04:13:55;27.70;;;17.97;;
43606;SDS011;29197;44.788;10.366;2022-12-18T04:16:45;28.73;;;20.03;;
43606;SDS011;29197;44.788;10.366;2022-12-18T04:19:35;27.73;;;18.37;;
43606;SDS011;29197;44.788;10.366;2022-12-18T04:22:24;28.90;;;17.93;;
43606;SDS011;29197;44.788;10.366;2022-12-18T04:25:13;27.30;;;18.63;;
43606;SDS011;29197;44.788;10.366;2022-12-18T04:28:04;27.13;;;17.87;;
43606;SDS011;29197;44.788;10.366;2022-12-18T04:30:54;28.33;;;18.37;;
43606;SDS011;29197;44.788;10.366;2022-12-18T04:33:44;29.87;;;18.50;;
43606;SDS011;29197;44.788;10.366;2022-12-18T04:36:33;26.43;;;17.17;;
43606;SDS011;29197;44.788;10.366;2022-12-18T04:39:23;28.67;;;19.70;;
43606;SDS011;29197;44.788;10.366;2022-12-18T04:42:12;25.93;;;17.30;;
43606;SDS011;29197;44.788;10.366;2022-12-18T04:45:03;22.90;;;16.63;;
43606;SDS011;29197;44.788;10.366;2022-12-18T04:47:53;23.37;;;16.27;;
43606;SDS011;29197;44.788;10.366;2022-12-18T04:50:43;26.10;;;16.73;;
43606;SDS011;29197;44.788;10.366;2022-12-18T04:53:32;25.77;;;17.50;;
43606;SDS011;29197;44.788;10.366;2022-12-18T04:56:21;24.43;;;16.00;;
43606;SDS011;29197;44.788;10.366;2022-12-18T04:59:10;24.93;;;17.07;;
43606;SDS011;29197;44.788;10.366;2022-12-18T05:02:00;24.70;;;15.73;;
43606;SDS011;29197;44.788;10.366;2022-12-18T05:04:49;23.97;;;16.57;;
43606;SDS011;29197;44.788;10.366;2022-12-18T05:07:39;27.37;;;18.57;;
43606;SDS011;29197;44.788;10.366;2022-12-18T05:10:28;29.23;;;18.80;;
43606;SDS011;29197;44.788;10.366;2022-12-18T05:13:23;30.13;;;18.70;;
43606;SDS011;29197;44.788;10.366;2022-12-18T05:16:13;28.23;;;18.20;;
43606;SDS011;29197;44.788;10.366;2022-12-18T05:19:04;28.93;;;17.23;;
43606;SDS011;29197;44.788;10.366;2022-12-18T05:21:54;28.13;;;17.90;;
43606;SDS011;29197;44.788;10.366;2022-12-18T05:24:44;28.63;;;17.30;;
43606;SDS011;29197;44.788;10.366;2022-12-18T05:27:34;26.13;;;16.77;;
43606;SDS011;29197;44.788;10.366;2022-12-18T08:27:11;36.07;;;18.80;;
43606;SDS011;29197;44.788;10.366;2022-12-18T08:30:15;39.53;;;21.80;;
43606;SDS011;29197;44.788;10.366;2022-12-18T08:33:04;41.27;;;21.17;;
43606;SDS011;29197;44.788;10.366;2022-12-18T08:35:54;42.03;;;22.07;;
43606;SDS011;29197;44.788;10.366;2022-12-18T08:38:43;39.93;;;21.70;;
43606;SDS011;29197;44.788;10.366;2022-12-18T08:41:32;41.93;;;22.53;;
43606;SDS011;29197;44.788;10.366;2022-12-18T08:44:24;45.47;;;23.83;;
43606;SDS011;29197;44.788;10.366;2022-12-18T08:47:27;41.97;;;21.87;;
43606;SDS011;29197;44.788;10.366;2022-12-18T08:50:18;43.83;;;20.63;;
43606;SDS011;29197;44.788;10.366;2022-12-18T08:53:07;46.83;;;23.07;;
43606;SDS011;29197;44.788;10.366;2022-12-18T08:55:56;47.77;;;23.93;;
43606;SDS011;29197;44.788;10.366;2022-12-18T08:58:45;49.70;;;23.93;;
43606;SDS011;29197;44.788;10.366;2022-12-18T09:01:36;41.83;;;22.00;;
43606;SDS011;29197;44.788;10.366;2022-12-18T09:04:26;42.33;;;22.97;;
43606;SDS011;29197;44.788;10.366;2022-12-18T09:07:16;44.57;;;21.70;;
43606;SDS011;29197;44.788;10.366;2022-12-18T09:10:05;45.93;;;24.07;;
43606;SDS011;29197;44.788;10.366;2022-12-18T09:12:55;41.50;;;22.07;;
43606;SDS011;29197;44.788;10.366;2022-12-18T09:15:45;42.07;;;22.73;;
43606;SDS011;29197;44.788;10.366;2022-12-18T09:18:37;46.30;;;24.73;;
43606;SDS011;29197;44.788;10.366;2022-12-18T09:21:28;44.23;;;23.73;;
43606;SDS011;29197;44.788;10.366;2022-12-18T09:24:23;43.17;;;21.53;;
43606;SDS011;29197;44.788;10.366;2022-12-18T09:27:12;45.17;;;22.80;;
43606;SDS011;29197;44.788;10.366;2022-12-18T09:30:03;43.97;;;21.93;;
43606;SDS011;29197;44.788;10.366;2022-12-18T09:32:53;40.53;;;20.67;;
43606;SDS011;29197;44.788;10.366;2022-12-18T09:35:44;43.00;;;23.10;;
43606;SDS011;29197;44.788;10.366;2022-12-18T09:38:34;44.87;;;22.50;;
43606;SDS011;29197;44.788;10.366;2022-12-18T09:41:32;40.50;;;20.67;;
43606;SDS011;29197;44.788;10.366;2022-12-18T09:44:32;42.17;;;20.47;;
43606;SDS011;29197;44.788;10.366;2022-12-18T09:47:33;44.83;;;21.20;;
43606;SDS011;29197;44.788;10.366;2022-12-18T09:50:27;38.27;;;20.93;;
43606;SDS011;29197;44.788;10.366;2022-12-18T09:53:21;43.80;;;22.53;;
43606;SDS011;29197;44.788;10.366;2022-12-18T09:56:15;39.60;;;21.13;;
43606;SDS011;29197;44.788;10.366;2022-12-18T09:59:14;40.43;;;20.00;;
43606;SDS011;29197;44.788;10.366;2022-12-18T10:02:14;37.00;;;20.30;;
43606;SDS011;29197;44.788;10.366;2022-12-18T10:05:10;41.07;;;19.97;;
43606;SDS011;29197;44.788;10.366;2022-12-18T10:08:02;35.43;;;19.77;;
43606;SDS011;29197;44.788;10.366;2022-12-18T10:11:03;38.53;;;20.20;;
43606;SDS011;29197;44.788;10.366;2022-12-18T10:14:10;33.97;;;18.07;;
43606;SDS011;29197;44.788;10.366;2022-12-18T10:17:09;38.33;;;20.47;;
43606;SDS011;29197;44.788;10.366;2022-12-18T10:20:09;38.73;;;20.57;;
43606;SDS011;29197;44.788;10.366;2022-12-18T10:23:02;35.37;;;18.27;;
43606;SDS011;29197;44.788;10.366;2022-12-18T10:26:01;42.17;;;20.83;;
43606;SDS011;29197;44.788;10.366;2022-12-18T10:28:51;43.17;;;20.87;;
43606;SDS011;29197;44.788;10.366;2022-12-18T10:31:51;42.53;;;21.10;;
43606;SDS011;29197;44.788;10.366;2022-12-18T10:34:40;38.33;;;20.70;;
43606;SDS011;29197;44.788;10.366;2022-12-18T10:37:29;36.73;;;19.93;;
43606;SDS011;29197;44.788;10.366;2022-12-18T10:40:19;37.53;;;19.13;;
43606;SDS011;29197;44.788;10.366;2022-12-18T10:43:12;35.13;;;18.97;;
43606;SDS011;29197;44.788;10.366;2022-12-18T10:46:04;39.97;;;19.33;;
43606;SDS011;29197;44.788;10.366;2022-12-18T10:49:02;35.10;;;19.00;;
43606;SDS011;29197;44.788;10.366;2022-12-18T10:52:03;34.53;;;19.43;;
43606;SDS011;29197;44.788;10.366;2022-12-18T10:55:03;35.33;;;19.47;;
43606;SDS011;29197;44.788;10.366;2022-12-18T10:57:53;35.90;;;20.07;;
43606;SDS011;29197;44.788;10.366;2022-12-18T11:00:44;36.23;;;19.07;;
43606;SDS011;29197;44.788;10.366;2022-12-18T11:03:34;37.23;;;20.60;;
43606;SDS011;29197;44.788;10.366;2022-12-18T11:06:24;34.97;;;19.10;;
43606;SDS011;29197;44.788;10.366;2022-12-18T11:09:19;42.60;;;21.80;;
43606;SDS011;29197;44.788;10.366;2022-12-18T11:12:14;34.93;;;19.63;;
43606;SDS011;29197;44.788;10.366;2022-12-18T11:15:05;40.77;;;21.13;;
43606;SDS011;29197;44.788;10.366;2022-12-18T11:18:04;33.17;;;19.07;;
43606;SDS011;29197;44.788;10.366;2022-12-18T11:21:05;36.40;;;19.10;;
43606;SDS011;29197;44.788;10.366;2022-12-18T11:23:56;35.80;;;19.63;;
43606;SDS011;29197;44.788;10.366;2022-12-18T11:26:45;35.23;;;18.20;;
43606;SDS011;29197;44.788;10.366;2022-12-18T11:29:39;34.77;;;20.00;;
43606;SDS011;29197;44.788;10.366;2022-12-18T11:32:33;36.90;;;20.77;;
43606;SDS011;29197;44.788;10.366;2022-12-18T11:35:30;37.17;;;20.90;;
43606;SDS011;29197;44.788;10.366;2022-12-18T11:38:26;38.47;;;21.33;;
43606;SDS011;29197;44.788;10.366;2022-12-18T11:41:19;36.80;;;20.47;;
43606;SDS011;29197;44.788;10.366;2022-12-18T11:44:35;32.67;;;18.27;;
43606;SDS011;29197;44.788;10.366;2022-12-18T11:47:31;36.10;;;19.90;;
43606;SDS011;29197;44.788;10.366;2022-12-18T11:50:31;38.13;;;20.23;;
43606;SDS011;29197;44.788;10.366;2022-12-18T11:53:29;37.10;;;20.33;;
43606;SDS011;29197;44.788;10.366;2022-12-18T11:56:26;37.40;;;20.30;;
43606;SDS011;29197;44.788;10.366;2022-12-18T11:59:23;40.03;;;20.53;;
43606;SDS011;29197;44.788;10.366;2022-12-18T12:02:25;43.23;;;22.07;;
43606;SDS011;29197;44.788;10.366;2022-12-18T12:05:34;45.33;;;21.20;;
43606;SDS011;29197;44.788;10.366;2022-12-18T12:08:35;39.20;;;19.87;;
43606;SDS011;29197;44.788;10.366;2022-12-18T12:11:35;37.97;;;19.70;;
43606;SDS011;29197;44.788;10.366;2022-12-18T12:14:36;39.97;;;20.83;;
43606;SDS011;29197;44.788;10.366;2022-12-18T12:17:34;34.13;;;17.30;;
43606;SDS011;29197;44.788;10.366;2022-12-18T12:20:32;44.03;;;19.77;;
43606;SDS011;29197;44.788;10.366;2022-12-18T12:23:35;32.87;;;17.57;;
43606;SDS011;29197;44.788;10.366;2022-12-18T12:26:30;30.17;;;17.00;;
43606;SDS011;29197;44.788;10.366;2022-12-18T12:29:27;34.33;;;18.97;;
43606;SDS011;29197;44.788;10.366;2022-12-18T12:32:30;36.90;;;20.47;;
43606;SDS011;29197;44.788;10.366;2022-12-18T12:35:32;36.80;;;20.27;;
43606;SDS011;29197;44.788;10.366;2022-12-18T12:38:33;35.70;;;19.67;;
43606;SDS011;29197;44.788;10.366;2022-12-18T12:41:25;38.03;;;20.10;;
43606;SDS011;29197;44.788;10.366;2022-12-18T12:44:38;37.17;;;20.57;;
43606;SDS011;29197;44.788;10.366;2022-12-18T12:47:35;37.37;;;20.27;;
43606;SDS011;29197;44.788;10.366;2022-12-18T12:50:28;43.07;;;21.37;;
43606;SDS011;29197;44.788;10.366;2022-12-18T12:53:25;32.77;;;19.17;;
43606;SDS011;29197;44.788;10.366;2022-12-18T12:56:18;35.50;;;19.67;;
43606;SDS011;29197;44.788;10.366;2022-12-18T12:59:11;41.33;;;20.67;;
43606;SDS011;29197;44.788;10.366;2022-12-18T13:02:10;34.23;;;20.30;;
43606;SDS011;29197;44.788;10.366;2022-12-18T13:05:10;37.77;;;20.03;;
43606;SDS011;29197;44.788;10.366;2022-12-18T13:08:08;35.27;;;18.70;;
43606;SDS011;29197;44.788;10.366;2022-12-18T13:11:01;36.60;;;19.07;;
43606;SDS011;29197;44.788;10.366;2022-12-18T13:14:23;31.50;;;17.07;;
43606;SDS011;29197;44.788;10.366;2022-12-18T13:20:21;31.27;;;18.20;;
43606;SDS011;29197;44.788;10.366;2022-12-18T13:23:31;35.93;;;19.23;;
43606;SDS011;29197;44.788;10.366;2022-12-18T13:26:31;30.93;;;17.20;;
43606;SDS011;29197;44.788;10.366;2022-12-18T13:29:40;31.30;;;17.97;;
43606;SDS011;29197;44.788;10.366;2022-12-18T13:32:30;29.50;;;18.27;;
43606;SDS011;29197;44.788;10.366;2022-12-18T13:35:38;27.70;;;18.03;;
43606;SDS011;29197;44.788;10.366;2022-12-18T13:38:32;34.43;;;20.33;;
43606;SDS011;29197;44.788;10.366;2022-12-18T13:41:24;34.87;;;19.90;;
43606;SDS011;29197;44.788;10.366;2022-12-18T13:44:24;34.93;;;18.50;;
43606;SDS011;29197;44.788;10.366;2022-12-18T13:47:25;36.13;;;19.60;;
43606;SDS011;29197;44.788;10.366;2022-12-18T13:50:20;26.63;;;16.50;;
43606;SDS011;29197;44.788;10.366;2022-12-18T13:53:20;32.27;;;18.57;;
43606;SDS011;29197;44.788;10.366;2022-12-18T13:56:14;32.13;;;19.03;;
43606;SDS011;29197;44.788;10.366;2022-12-18T13:59:12;36.43;;;20.30;;
43606;SDS011;29197;44.788;10.366;2022-12-18T14:02:13;35.43;;;20.00;;
43606;SDS011;29197;44.788;10.366;2022-12-18T14:05:04;35.90;;;20.87;;
43606;SDS011;29197;44.788;10.366;2022-12-18T14:07:53;39.90;;;20.70;;
43606;SDS011;29197;44.788;10.366;2022-12-18T14:10:45;35.83;;;20.37;;
43606;SDS011;29197;44.788;10.366;2022-12-18T14:13:37;38.90;;;21.43;;
43606;SDS011;29197;44.788;10.366;2022-12-18T14:16:30;40.80;;;23.07;;
43606;SDS011;29197;44.788;10.366;2022-12-18T14:19:23;40.47;;;21.37;;
43606;SDS011;29197;44.788;10.366;2022-12-18T14:22:16;43.73;;;23.43;;
43606;SDS011;29197;44.788;10.366;2022-12-18T14:25:17;36.43;;;18.80;;
43606;SDS011;29197;44.788;10.366;2022-12-18T14:28:08;41.23;;;22.93;;
43606;SDS011;29197;44.788;10.366;2022-12-18T14:31:02;35.03;;;20.20;;
43606;SDS011;29197;44.788;10.366;2022-12-18T14:33:51;37.67;;;20.70;;
43606;SDS011;29197;44.788;10.366;2022-12-18T14:36:44;34.33;;;21.30;;
43606;SDS011;29197;44.788;10.366;2022-12-18T14:39:40;36.60;;;21.27;;
43606;SDS011;29197;44.788;10.366;2022-12-18T14:42:41;41.37;;;20.93;;
43606;SDS011;29197;44.788;10.366;2022-12-18T14:45:34;35.97;;;21.10;;
43606;SDS011;29197;44.788;10.366;2022-12-18T14:48:36;35.60;;;19.93;;
43606;SDS011;29197;44.788;10.366;2022-12-18T14:51:26;39.67;;;22.23;;
43606;SDS011;29197;44.788;10.366;2022-12-18T14:54:18;39.87;;;22.13;;
43606;SDS011;29197;44.788;10.366;2022-12-18T14:57:14;41.40;;;23.57;;
43606;SDS011;29197;44.788;10.366;2022-12-18T15:00:13;41.20;;;23.47;;
43606;SDS011;29197;44.788;10.366;2022-12-18T15:03:05;45.63;;;25.17;;
43606;SDS011;29197;44.788;10.366;2022-12-18T15:05:56;38.77;;;22.47;;
43606;SDS011;29197;44.788;10.366;2022-12-18T15:09:05;36.40;;;20.90;;
43606;SDS011;29197;44.788;10.366;2022-12-18T15:12:20;51.80;;;28.80;;
43606;SDS011;29197;44.788;10.366;2022-12-18T15:18:32;40.17;;;23.10;;
43606;SDS011;29197;44.788;10.366;2022-12-18T15:21:24;48.37;;;25.27;;
43606;SDS011;29197;44.788;10.366;2022-12-18T15:24:17;43.33;;;25.33;;
43606;SDS011;29197;44.788;10.366;2022-12-18T15:27:25;43.13;;;23.50;;
43606;SDS011;29197;44.788;10.366;2022-12-18T15:30:23;38.67;;;21.93;;
43606;SDS011;29197;44.788;10.366;2022-12-18T15:33:17;42.33;;;22.77;;
43606;SDS011;29197;44.788;10.366;2022-12-18T15:36:13;40.50;;;21.93;;
43606;SDS011;29197;44.788;10.366;2022-12-18T15:39:12;42.07;;;22.77;;
43606;SDS011;29197;44.788;10.366;2022-12-18T15:42:03;40.93;;;23.00;;
43606;SDS011;29197;44.788;10.366;2022-12-18T15:45:11;38.03;;;21.37;;
43606;SDS011;29197;44.788;10.366;2022-12-18T15:48:01;36.60;;;22.30;;
43606;SDS011;29197;44.788;10.366;2022-12-18T15:50:50;41.43;;;22.93;;
43606;SDS011;29197;44.788;10.366;2022-12-18T15:53:43;32.47;;;20.37;;
43606;SDS011;29197;44.788;10.366;2022-12-18T15:56:33;38.67;;;20.47;;
43606;SDS011;29197;44.788;10.366;2022-12-18T15:59:42;42.00;;;23.93;;
43606;SDS011;29197;44.788;10.366;2022-12-18T16:02:31;43.30;;;22.00;;
43606;SDS011;29197;44.788;10.366;2022-12-18T16:05:22;39.67;;;22.33;;
43606;SDS011;29197;44.788;10.366;2022-12-18T16:08:12;39.90;;;20.93;;
43606;SDS011;29197;44.788;10.366;2022-12-18T16:11:01;40.40;;;22.80;;
43606;SDS011;29197;44.788;10.366;2022-12-18T16:13:51;40.00;;;22.47;;
43606;SDS011;29197;44.788;10.366;2022-12-18T16:16:42;37.97;;;20.93;;
43606;SDS011;29197;44.788;10.366;2022-12-18T16:19:31;39.50;;;21.23;;
43606;SDS011;29197;44.788;10.366;2022-12-18T16:22:21;37.17;;;20.40;;
43606;SDS011;29197;44.788;10.366;2022-12-18T16:25:15;41.03;;;21.30;;
43606;SDS011;29197;44.788;10.366;2022-12-18T16:28:10;39.47;;;21.67;;
43606;SDS011;29197;44.788;10.366;2022-12-18T16:31:00;40.30;;;22.07;;
43606;SDS011;29197;44.788;10.366;2022-12-18T16:33:55;39.30;;;21.93;;
43606;SDS011;29197;44.788;10.366;2022-12-18T16:36:59;44.77;;;23.37;;
43606;SDS011;29197;44.788;10.366;2022-12-18T16:39:52;39.77;;;21.80;;
43606;SDS011;29197;44.788;10.366;2022-12-18T16:42:41;43.93;;;23.13;;
43606;SDS011;29197;44.788;10.366;2022-12-18T16:45:31;39.07;;;21.53;;
43606;SDS011;29197;44.788;10.366;2022-12-18T16:48:21;35.63;;;21.03;;
43606;SDS011;29197;44.788;10.366;2022-12-18T16:51:11;37.27;;;21.73;;
43606;SDS011;29197;44.788;10.366;2022-12-18T16:54:02;38.07;;;23.07;;
43606;SDS011;29197;44.788;10.366;2022-12-18T16:56:57;39.30;;;21.53;;
43606;SDS011;29197;44.788;10.366;2022-12-18T16:59:47;37.53;;;21.43;;
43606;SDS011;29197;44.788;10.366;2022-12-18T17:02:37;40.30;;;22.37;;
43606;SDS011;29197;44.788;10.366;2022-12-18T17:05:27;44.17;;;22.93;;
43606;SDS011;29197;44.788;10.366;2022-12-18T17:08:17;39.10;;;22.33;;
43606;SDS011;29197;44.788;10.366;2022-12-18T17:11:07;36.57;;;20.87;;
43606;SDS011;29197;44.788;10.366;2022-12-18T17:13:56;39.13;;;22.00;;
43606;SDS011;29197;44.788;10.366;2022-12-18T17:16:46;39.20;;;22.20;;
43606;SDS011;29197;44.788;10.366;2022-12-18T17:19:56;47.33;;;22.27;;
43606;SDS011;29197;44.788;10.366;2022-12-18T17:22:45;42.10;;;22.03;;
43606;SDS011;29197;44.788;10.366;2022-12-18T17:25:39;41.03;;;23.33;;
43606;SDS011;29197;44.788;10.366;2022-12-18T17:28:29;39.60;;;22.03;;
43606;SDS011;29197;44.788;10.366;2022-12-18T17:31:20;40.50;;;22.20;;
43606;SDS011;29197;44.788;10.366;2022-12-18T17:34:11;38.10;;;22.40;;
43606;SDS011;29197;44.788;10.366;2022-12-18T17:37:01;42.40;;;22.37;;
43606;SDS011;29197;44.788;10.366;2022-12-18T17:39:50;47.77;;;22.90;;
43606;SDS011;29197;44.788;10.366;2022-12-18T17:42:41;41.27;;;23.63;;
43606;SDS011;29197;44.788;10.366;2022-12-18T17:45:33;41.13;;;22.00;;
43606;SDS011;29197;44.788;10.366;2022-12-18T17:48:24;47.20;;;24.23;;
43606;SDS011;29197;44.788;10.366;2022-12-18T17:51:13;49.00;;;23.80;;
43606;SDS011;29197;44.788;10.366;2022-12-18T17:54:03;39.67;;;21.27;;
43606;SDS011;29197;44.788;10.366;2022-12-18T17:56:53;43.40;;;22.40;;
43606;SDS011;29197;44.788;10.366;2022-12-18T17:59:44;44.23;;;22.47;;
43606;SDS011;29197;44.788;10.366;2022-12-18T18:02:33;42.87;;;21.83;;
43606;SDS011;29197;44.788;10.366;2022-12-18T18:05:23;42.70;;;22.43;;
43606;SDS011;29197;44.788;10.366;2022-12-18T18:08:13;44.00;;;23.50;;
43606;SDS011;29197;44.788;10.366;2022-12-18T18:11:03;46.97;;;23.17;;
43606;SDS011;29197;44.788;10.366;2022-12-18T18:14:11;43.50;;;22.27;;
43606;SDS011;29197;44.788;10.366;2022-12-18T18:17:03;48.80;;;24.30;;
43606;SDS011;29197;44.788;10.366;2022-12-18T18:19:53;51.40;;;24.10;;
43606;SDS011;29197;44.788;10.366;2022-12-18T18:22:42;46.77;;;24.10;;
43606;SDS011;29197;44.788;10.366;2022-12-18T18:25:34;50.50;;;24.57;;
43606;SDS011;29197;44.788;10.366;2022-12-18T18:28:23;49.37;;;25.23;;
43606;SDS011;29197;44.788;10.366;2022-12-18T18:31:13;48.60;;;26.23;;
43606;SDS011;29197;44.788;10.366;2022-12-18T18:34:04;52.57;;;25.27;;
43606;SDS011;29197;44.788;10.366;2022-12-18T18:36:53;48.77;;;23.27;;
43606;SDS011;29197;44.788;10.366;2022-12-18T18:39:43;54.30;;;25.73;;
43606;SDS011;29197;44.788;10.366;2022-12-18T18:42:32;46.60;;;22.90;;
43606;SDS011;29197;44.788;10.366;2022-12-18T18:45:22;50.27;;;25.57;;
43606;SDS011;29197;44.788;10.366;2022-12-18T18:48:11;46.03;;;23.27;;
43606;SDS011;29197;44.788;10.366;2022-12-18T18:51:04;45.57;;;23.77;;
43606;SDS011;29197;44.788;10.366;2022-12-18T18:53:55;42.50;;;23.47;;
43606;SDS011;29197;44.788;10.366;2022-12-18T18:56:46;50.77;;;25.10;;
43606;SDS011;29197;44.788;10.366;2022-12-18T18:59:56;51.63;;;25.07;;
43606;SDS011;29197;44.788;10.366;2022-12-18T19:02:45;45.40;;;23.73;;
43606;SDS011;29197;44.788;10.366;2022-12-18T19:05:34;44.40;;;22.87;;
43606;SDS011;29197;44.788;10.366;2022-12-18T19:08:30;50.00;;;24.70;;
43606;SDS011;29197;44.788;10.366;2022-12-18T19:11:22;51.17;;;26.63;;
43606;SDS011;29197;44.788;10.366;2022-12-18T19:14:30;45.17;;;24.87;;
43606;SDS011;29197;44.788;10.366;2022-12-18T19:17:20;51.30;;;25.87;;
43606;SDS011;29197;44.788;10.366;2022-12-18T19:20:15;47.67;;;24.80;;
43606;SDS011;29197;44.788;10.366;2022-12-18T19:23:04;52.33;;;26.70;;
43606;SDS011;29197;44.788;10.366;2022-12-18T19:25:57;52.10;;;27.57;;
43606;SDS011;29197;44.788;10.366;2022-12-18T19:29:07;68.83;;;33.47;;
43606;SDS011;29197;44.788;10.366;2022-12-18T19:31:58;50.33;;;26.73;;
43606;SDS011;29197;44.788;10.366;2022-12-18T19:34:48;55.63;;;26.87;;
43606;SDS011;29197;44.788;10.366;2022-12-18T19:37:37;52.43;;;26.90;;
43606;SDS011;29197;44.788;10.366;2022-12-18T19:40:26;50.43;;;27.23;;
43606;SDS011;29197;44.788;10.366;2022-12-18T19:43:17;49.30;;;26.97;;